Time;durP1;ratioP1;P1;durP2;ratioP2;P2;SDS_P1;SDS_P2;PMS_P1;PMS_P2;Temp;Humidity;BMP_temperature;BMP_pressure;BME280_temperature;BME280_humidity;BME280_pressure;Samples;Min_cycle;Max_cycle;Signal;HPM_P1;HPM_P2
2021/01/23 00:02:22;;;;;;;0.53;0.30;;;1.70;99.90;;;;;;4903757;29;20115;-86
2021/01/23 00:04:48;;;;;;;0.60;0.30;;;1.60;99.90;;;;;;4904217;29;20486;-86
2021/01/23 00:07:13;;;;;;;0.30;0.20;;;1.60;99.90;;;;;;4903834;29;20076;-86
2021/01/23 00:09:39;;;;;;;0.67;0.30;;;1.60;99.90;;;;;;4903931;29;20071;-85
2021/01/23 00:12:07;;;;;;;0.70;0.20;;;1.60;99.90;;;;;;4910223;29;20039;-86
2021/01/23 00:14:33;;;;;;;1.50;0.30;;;1.60;99.90;;;;;;4912596;29;20028;-86
2021/01/23 00:16:59;;;;;;;1.03;0.40;;;1.60;99.90;;;;;;4907738;29;20029;-86
2021/01/23 00:19:26;;;;;;;1.00;0.40;;;1.50;99.90;;;;;;4908750;29;20032;-86
2021/01/23 00:21:52;;;;;;;0.97;0.30;;;1.60;99.90;;;;;;4923216;29;20034;-85
2021/01/23 00:24:18;;;;;;;1.10;0.40;;;1.60;99.90;;;;;;4907181;29;20031;-86
2021/01/23 00:26:44;;;;;;;0.90;0.40;;;1.60;99.90;;;;;;4917319;29;20163;-85
2021/01/23 00:29:13;;;;;;;1.00;0.40;;;1.50;99.90;;;;;;4909153;29;20482;-85
2021/01/23 00:31:40;;;;;;;0.67;0.40;;;1.50;99.90;;;;;;4912261;29;20043;-85
2021/01/23 08:25:48;;;;;;;6.10;3.20;;;1.30;99.90;;;;;;4932415;29;20047;-92
2021/01/23 08:28:27;;;;;;;6.50;3.57;;;1.40;99.90;;;;;;4917661;29;20019;-90
2021/01/23 08:31:09;;;;;;;6.43;3.50;;;1.40;99.90;;;;;;4912986;29;20028;-93
2021/01/23 08:37:12;;;;;;;5.87;3.60;;;1.40;99.90;;;;;;4892005;29;20519;-89
2021/01/23 08:39:46;;;;;;;6.97;3.17;;;1.50;99.90;;;;;;4890597;29;20059;-89
2021/01/23 08:42:12;;;;;;;6.70;2.73;;;1.60;99.90;;;;;;4894248;29;20039;-90
2021/01/23 08:44:38;;;;;;;6.47;3.30;;;1.60;99.90;;;;;;4906437;29;20016;-90
2021/01/23 08:47:05;;;;;;;6.77;3.40;;;1.60;99.90;;;;;;4892004;29;20560;-90
2021/01/23 08:49:31;;;;;;;6.80;3.23;;;1.70;99.90;;;;;;4893934;29;20486;-89
2021/01/23 08:51:58;;;;;;;5.30;3.37;;;1.70;99.90;;;;;;4895061;29;20141;-90
2021/01/23 08:54:30;;;;;;;5.43;3.17;;;1.70;99.90;;;;;;4893604;29;20039;-91
2021/01/23 08:57:05;;;;;;;6.72;3.72;;;1.70;99.90;;;;;;4883871;29;20033;-93
2021/01/23 08:59:31;;;;;;;6.33;3.53;;;1.80;99.90;;;;;;4892260;29;20036;-90
2021/01/23 09:01:57;;;;;;;5.73;2.80;;;1.80;99.90;;;;;;4876124;29;20259;-90
2021/01/23 09:04:22;;;;;;;7.07;4.23;;;1.90;99.90;;;;;;4892189;29;20552;-91
2021/01/23 09:06:48;;;;;;;6.03;3.10;;;2.10;99.90;;;;;;4889300;29;20025;-90
2021/01/23 09:09:14;;;;;;;5.43;3.17;;;2.10;99.90;;;;;;4891110;29;20110;-91
2021/01/23 09:11:43;;;;;;;5.13;2.60;;;2.20;99.90;;;;;;4891429;29;20087;-93
2021/01/23 09:14:11;;;;;;;5.27;2.50;;;2.30;99.90;;;;;;4894207;29;20159;-93
2021/01/23 09:16:37;;;;;;;5.50;2.70;;;2.20;99.90;;;;;;4903205;29;20036;-93
2021/01/23 09:19:03;;;;;;;5.60;2.73;;;2.20;99.90;;;;;;4902775;29;20172;-93
2021/01/23 09:21:29;;;;;;;9.20;2.80;;;2.20;99.90;;;;;;4900960;29;20107;-94
2021/01/23 09:23:55;;;;;;;7.00;2.57;;;2.30;99.90;;;;;;4909088;29;20028;-95
2021/01/23 09:26:20;;;;;;;3.60;2.20;;;2.40;99.90;;;;;;4901359;29;20070;-94
2021/01/23 09:28:46;;;;;;;5.63;2.23;;;2.30;99.90;;;;;;4912209;29;20067;-95
2021/01/23 09:31:13;;;;;;;5.07;2.67;;;2.30;99.90;;;;;;4911383;29;20033;-92
2021/01/23 09:33:39;;;;;;;5.40;2.60;;;2.40;99.90;;;;;;4900222;29;20037;-94
2021/01/23 09:36:05;;;;;;;4.80;2.67;;;2.40;99.90;;;;;;4908189;29;20040;-94
2021/01/23 09:38:34;;;;;;;5.77;2.17;;;2.60;99.90;;;;;;4912222;29;20055;-95
2021/01/23 09:41:00;;;;;;;4.60;2.17;;;2.70;99.90;;;;;;4923564;29;20055;-93
2021/01/23 09:43:30;;;;;;;4.53;1.90;;;2.80;99.90;;;;;;4909224;29;20043;-92
2021/01/23 09:45:56;;;;;;;6.97;2.53;;;2.80;99.90;;;;;;4898966;29;20042;-91
2021/01/23 09:48:22;;;;;;;5.03;2.17;;;2.80;99.90;;;;;;4908962;29;20012;-94
2021/01/23 09:50:47;;;;;;;4.23;2.40;;;2.80;99.90;;;;;;4917925;29;20024;-94
2021/01/23 09:53:14;;;;;;;6.43;2.30;;;2.90;99.90;;;;;;4920461;29;20008;-93
2021/01/23 09:55:41;;;;;;;8.50;2.60;;;3.00;99.90;;;;;;4912689;29;20032;-94
2021/01/23 09:58:07;;;;;;;5.40;2.00;;;3.10;99.90;;;;;;4919843;29;20047;-94
2021/01/23 10:00:34;;;;;;;7.17;2.10;;;3.10;99.90;;;;;;4933193;29;20099;-96
2021/01/23 10:02:59;;;;;;;6.93;1.80;;;2.90;99.90;;;;;;4915218;29;20035;-96
2021/01/23 10:05:26;;;;;;;4.67;1.97;;;2.90;99.90;;;;;;4914899;29;20100;-95
2021/01/23 10:07:53;;;;;;;9.70;1.77;;;2.90;99.90;;;;;;4913969;29;20028;-95
2021/01/23 11:27:57;;;;;;;6.10;2.10;;;3.60;99.90;;;;;;4946263;28;20049;-93
2021/01/23 11:30:23;;;;;;;4.43;1.90;;;3.60;99.90;;;;;;4915165;29;20473;-94
2021/01/23 11:32:49;;;;;;;4.67;1.90;;;3.90;99.90;;;;;;4918748;29;20115;-93
2021/01/23 11:35:16;;;;;;;4.97;1.80;;;3.80;99.90;;;;;;4908479;29;20075;-94
2021/01/23 11:37:41;;;;;;;5.57;2.03;;;3.80;99.90;;;;;;4900230;29;20028;-92
2021/01/23 11:40:08;;;;;;;4.63;2.20;;;3.50;99.90;;;;;;4908779;29;20048;-92
2021/01/23 11:42:34;;;;;;;4.10;2.30;;;3.70;99.90;;;;;;4917332;29;20016;-93
2021/01/23 11:45:03;;;;;;;5.00;2.37;;;3.70;99.90;;;;;;4914276;29;20075;-93
2021/01/23 11:47:29;;;;;;;6.27;2.30;;;3.70;99.90;;;;;;4918474;29;20040;-93
2021/01/23 11:49:54;;;;;;;4.87;2.27;;;3.70;99.90;;;;;;4925082;29;20074;-93
2021/01/23 11:52:20;;;;;;;3.33;2.10;;;3.70;99.90;;;;;;4920025;29;20036;-94
2021/01/23 11:54:47;;;;;;;6.93;2.63;;;3.60;99.90;;;;;;4917259;29;20023;-94
2021/01/23 11:57:13;;;;;;;6.10;2.50;;;3.70;99.90;;;;;;4921258;29;20020;-92
2021/01/23 11:59:40;;;;;;;4.43;2.33;;;3.80;99.90;;;;;;4925568;29;20024;-94
2021/01/23 12:02:06;;;;;;;5.57;2.40;;;3.80;99.90;;;;;;4921366;29;20012;-93
2021/01/23 12:04:32;;;;;;;5.60;2.40;;;3.80;99.90;;;;;;4922053;29;20016;-95
2021/01/23 12:06:58;;;;;;;5.67;2.37;;;3.80;99.90;;;;;;4927137;29;20036;-95
2021/01/23 12:09:24;;;;;;;4.07;2.20;;;3.90;99.90;;;;;;4925508;29;20187;-94
2021/01/23 12:11:50;;;;;;;4.80;1.90;;;3.80;99.90;;;;;;4923635;29;20072;-94
2021/01/23 13:55:09;;;;;;;4.20;1.70;;;4.30;99.90;;;;;;4903326;29;20060;-90
2021/01/23 13:57:35;;;;;;;5.37;1.70;;;4.30;99.90;;;;;;4891144;29;20489;-90
2021/01/23 14:00:01;;;;;;;2.77;1.60;;;4.40;99.90;;;;;;4898294;29;20079;-92
2021/01/23 14:02:27;;;;;;;5.03;2.00;;;4.40;99.90;;;;;;4892085;29;20037;-90
2021/01/23 14:04:52;;;;;;;4.33;1.57;;;4.40;99.90;;;;;;4914401;29;20088;-90
2021/01/23 14:07:18;;;;;;;4.73;1.60;;;4.40;99.90;;;;;;4908341;29;20028;-90
2021/01/23 14:09:43;;;;;;;5.77;1.90;;;4.40;99.90;;;;;;4911692;29;20338;-90
2021/01/23 14:12:09;;;;;;;4.03;1.77;;;4.40;99.90;;;;;;4893856;29;20024;-91
2021/01/23 14:14:36;;;;;;;5.50;1.93;;;4.40;99.90;;;;;;4890576;29;20517;-90
2021/01/23 14:17:02;;;;;;;4.80;2.23;;;4.40;99.90;;;;;;4893877;29;20043;-90
2021/01/23 14:19:27;;;;;;;4.30;2.13;;;4.40;99.90;;;;;;4895187;29;20036;-90
2021/01/23 14:21:53;;;;;;;5.57;2.50;;;4.30;99.90;;;;;;4903241;29;20042;-91
2021/01/23 14:24:18;;;;;;;5.60;2.63;;;4.30;99.90;;;;;;4895768;29;20067;-88
2021/01/23 14:26:46;;;;;;;6.30;2.90;;;4.20;99.90;;;;;;4898176;29;20441;-90
2021/01/23 14:29:12;;;;;;;5.50;3.03;;;4.10;99.90;;;;;;4898667;29;20151;-90
2021/01/23 14:31:38;;;;;;;5.87;3.00;;;4.00;99.90;;;;;;4900879;29;20024;-90
2021/01/23 14:34:04;;;;;;;6.97;3.13;;;3.90;99.90;;;;;;4904867;29;20080;-90
2021/01/23 14:36:30;;;;;;;7.77;3.43;;;3.90;99.90;;;;;;4901066;29;20492;-89
2021/01/23 14:38:55;;;;;;;6.50;3.77;;;3.80;99.90;;;;;;4900555;29;20028;-88
2021/01/23 14:41:21;;;;;;;8.20;3.73;;;3.90;99.90;;;;;;4890161;29;20405;-88
2021/01/23 14:43:50;;;;;;;6.33;3.57;;;3.80;99.90;;;;;;4900028;29;20493;-91
2021/01/23 14:46:17;;;;;;;7.03;3.50;;;3.90;99.90;;;;;;4917353;29;20030;-90
2021/01/23 14:48:43;;;;;;;7.17;3.83;;;3.80;99.90;;;;;;4898694;29;20028;-90
2021/01/23 14:51:09;;;;;;;8.03;4.00;;;3.70;99.90;;;;;;4899370;29;20029;-89
2021/01/23 14:53:34;;;;;;;9.13;4.50;;;3.80;99.90;;;;;;4899528;29;20067;-91
2021/01/23 14:56:00;;;;;;;7.60;4.23;;;3.70;99.90;;;;;;4892813;29;20115;-90
2021/01/23 14:58:26;;;;;;;9.13;4.90;;;3.80;99.90;;;;;;4898601;29;20031;-90
2021/01/23 15:00:51;;;;;;;10.43;4.93;;;3.70;99.90;;;;;;4896631;29;20024;-90
2021/01/23 15:03:18;;;;;;;9.43;4.70;;;3.80;99.90;;;;;;4905157;29;20052;-92
2021/01/23 15:05:44;;;;;;;8.93;4.47;;;3.70;99.90;;;;;;4897542;29;20527;-90
2021/01/23 15:08:10;;;;;;;9.53;5.00;;;3.70;99.90;;;;;;4896156;29;20027;-88
2021/01/23 15:10:35;;;;;;;9.43;5.53;;;3.70;99.90;;;;;;4896427;29;20043;-88
2021/01/23 15:13:01;;;;;;;9.40;4.97;;;3.60;99.90;;;;;;4897542;29;20031;-91
2021/01/23 15:15:27;;;;;;;7.93;5.10;;;3.60;99.90;;;;;;4896744;29;20541;-90
2021/01/23 15:17:53;;;;;;;10.30;5.57;;;3.50;99.90;;;;;;4898733;29;20135;-91
2021/01/23 15:20:18;;;;;;;8.10;4.87;;;3.50;99.90;;;;;;4896378;29;20117;-90
2021/01/23 15:22:44;;;;;;;7.37;4.90;;;3.50;99.90;;;;;;4894672;29;20091;-91
2021/01/23 15:25:10;;;;;;;7.87;4.93;;;3.40;99.90;;;;;;4890558;29;20035;-83
2021/01/23 15:27:36;;;;;;;12.90;4.70;;;3.40;99.90;;;;;;4891254;29;20133;-88
2021/01/23 15:30:04;;;;;;;10.33;4.57;;;3.40;99.90;;;;;;4912144;29;20663;-88
2021/01/23 15:32:31;;;;;;;6.40;3.60;;;3.40;99.90;;;;;;4910487;29;20051;-89
2021/01/23 15:34:56;;;;;;;8.03;3.57;;;3.30;99.90;;;;;;4896425;29;20024;-88
2021/01/23 15:37:22;;;;;;;6.03;3.20;;;3.20;99.90;;;;;;4913466;29;20344;-88
2021/01/23 15:39:48;;;;;;;7.17;2.80;;;3.20;99.90;;;;;;4897877;29;20107;-89
2021/01/23 15:42:13;;;;;;;7.80;2.90;;;3.10;99.90;;;;;;4907478;29;20056;-87
2021/01/23 15:44:39;;;;;;;8.40;3.00;;;3.10;99.90;;;;;;4920041;29;20115;-86
2021/01/23 15:47:06;;;;;;;8.57;4.03;;;3.00;99.90;;;;;;4898364;29;20043;-88
2021/01/23 15:49:32;;;;;;;5.37;2.80;;;3.00;99.90;;;;;;4897349;29;20372;-89
2021/01/23 15:51:58;;;;;;;7.23;3.00;;;3.10;99.90;;;;;;4895574;29;20454;-88
2021/01/23 15:54:24;;;;;;;5.70;2.80;;;3.00;99.90;;;;;;4893468;29;20051;-88
2021/01/23 15:56:50;;;;;;;6.33;2.97;;;2.90;99.90;;;;;;4895716;29;20630;-86
2021/01/23 15:59:15;;;;;;;7.73;2.93;;;2.90;99.90;;;;;;4911868;29;20024;-87
2021/01/23 16:01:44;;;;;;;6.00;2.60;;;2.80;99.90;;;;;;4893960;29;20386;-87
2021/01/23 16:04:10;;;;;;;5.27;2.90;;;2.80;99.90;;;;;;4879898;29;20515;-88
2021/01/23 16:06:36;;;;;;;4.80;2.80;;;2.80;99.90;;;;;;4895250;29;20063;-88
2021/01/23 16:09:02;;;;;;;6.43;3.13;;;2.70;99.90;;;;;;4895864;29;20032;-90
2021/01/23 16:11:27;;;;;;;6.57;3.37;;;2.60;99.90;;;;;;4892797;29;20619;-89
2021/01/23 16:13:53;;;;;;;5.97;3.00;;;2.60;99.90;;;;;;4910127;29;20082;-89
2021/01/23 16:16:19;;;;;;;6.57;3.13;;;2.60;99.90;;;;;;4893657;29;20032;-87
2021/01/23 16:18:45;;;;;;;7.37;3.53;;;2.50;99.90;;;;;;4893099;29;20485;-87
2021/01/23 16:21:11;;;;;;;8.80;4.07;;;2.50;99.90;;;;;;4893355;29;20065;-86
2021/01/23 16:23:36;;;;;;;6.93;3.73;;;2.40;99.90;;;;;;4893072;29;20040;-87
2021/01/23 16:26:02;;;;;;;7.60;3.43;;;2.40;99.90;;;;;;4896250;29;20024;-86
2021/01/23 16:28:28;;;;;;;7.30;4.10;;;2.30;99.90;;;;;;4902297;29;20821;-87
2021/01/23 16:30:54;;;;;;;8.43;4.00;;;2.30;99.90;;;;;;4891900;29;20025;-87
2021/01/23 16:33:20;;;;;;;8.17;4.03;;;2.30;99.90;;;;;;4894247;29;20779;-86
2021/01/23 16:35:45;;;;;;;7.93;4.10;;;2.30;99.90;;;;;;4896069;29;20024;-86
2021/01/23 16:38:12;;;;;;;10.87;4.93;;;2.40;99.90;;;;;;4894414;29;21449;-86
2021/01/23 16:40:39;;;;;;;8.27;4.43;;;2.30;99.90;;;;;;4884234;29;20032;-86
2021/01/23 16:43:05;;;;;;;8.57;4.80;;;2.30;99.90;;;;;;4891894;29;20039;-87
2021/01/23 16:45:31;;;;;;;8.73;4.43;;;2.30;99.90;;;;;;4894032;29;20028;-87
2021/01/23 16:47:57;;;;;;;7.57;4.77;;;2.30;99.90;;;;;;4897351;29;20028;-90
2021/01/23 16:50:23;;;;;;;8.17;4.47;;;2.20;99.90;;;;;;4892844;29;20032;-89
2021/01/23 16:52:49;;;;;;;8.27;4.80;;;2.30;99.90;;;;;;4894774;29;20063;-89
2021/01/23 16:55:15;;;;;;;9.93;4.90;;;2.30;99.90;;;;;;4895334;29;20151;-90
2021/01/23 16:57:42;;;;;;;11.07;4.73;;;2.20;99.90;;;;;;4892217;29;20043;-90
2021/01/23 17:00:14;;;;;;;13.33;7.60;;;2.20;99.90;;;;;;4893399;29;20076;-91
2021/01/23 17:02:39;;;;;;;13.80;5.68;;;2.20;99.90;;;;;;4891847;29;20043;-91
2021/01/23 17:05:06;;;;;;;8.83;5.03;;;2.30;99.90;;;;;;4882642;29;20046;-91
2021/01/23 17:07:33;;;;;;;7.80;4.83;;;2.30;99.90;;;;;;4896786;29;20032;-90
2021/01/23 17:10:00;;;;;;;10.47;5.17;;;2.30;99.90;;;;;;4901340;29;20083;-90
2021/01/23 17:12:26;;;;;;;10.13;5.20;;;2.30;99.90;;;;;;4873960;29;20020;-90
2021/01/23 17:14:54;;;;;;;8.50;4.90;;;2.30;99.90;;;;;;4897553;29;20035;-90
2021/01/23 17:17:20;;;;;;;8.63;5.00;;;2.20;99.90;;;;;;4893413;29;20032;-91
2021/01/23 17:19:46;;;;;;;9.70;5.10;;;2.30;99.90;;;;;;4899154;29;20526;-92
2021/01/23 17:22:12;;;;;;;9.63;5.37;;;2.20;99.90;;;;;;4898698;29;20055;-92
2021/01/23 17:24:38;;;;;;;10.60;5.33;;;2.20;99.90;;;;;;4895948;29;20128;-92
2021/01/23 17:27:05;;;;;;;10.53;5.50;;;2.10;99.90;;;;;;4900328;29;20028;-91
2021/01/23 17:29:31;;;;;;;9.47;5.50;;;2.20;99.90;;;;;;4897390;29;20020;-91
2021/01/23 17:31:57;;;;;;;10.13;6.40;;;2.20;99.90;;;;;;4897842;29;20401;-92
2021/01/23 17:34:22;;;;;;;10.37;5.63;;;2.20;99.90;;;;;;4898483;29;20028;-93
2021/01/23 17:36:48;;;;;;;10.70;5.73;;;2.10;99.90;;;;;;4895017;29;20087;-93
2021/01/23 17:39:13;;;;;;;8.73;5.67;;;2.20;99.90;;;;;;4898768;29;20652;-90
2021/01/23 17:41:39;;;;;;;9.00;5.87;;;2.10;99.90;;;;;;4916605;29;20497;-91
2021/01/23 17:44:06;;;;;;;7.60;5.13;;;2.10;99.90;;;;;;4896722;29;20024;-91
2021/01/23 17:46:34;;;;;;;10.03;5.43;;;2.10;99.90;;;;;;4899957;29;20048;-94
2021/01/23 17:49:01;;;;;;;9.60;5.83;;;2.10;99.90;;;;;;4907828;29;20080;-91
2021/01/23 17:51:26;;;;;;;9.83;5.50;;;2.20;99.90;;;;;;4910079;29;20067;-91
2021/01/23 17:53:53;;;;;;;10.00;5.83;;;2.20;99.90;;;;;;4907987;29;20048;-92
2021/01/23 17:56:21;;;;;;;8.33;5.43;;;2.20;99.90;;;;;;4909235;29;20059;-93
2021/01/23 17:58:51;;;;;;;9.63;5.73;;;2.10;99.90;;;;;;4906883;29;20083;-93
2021/01/23 18:01:17;;;;;;;9.30;6.27;;;2.10;99.90;;;;;;4912444;29;20024;-92
2021/01/23 18:04:20;;;;;;;10.13;5.67;;;2.20;99.90;;;;;;5066711;28;20382;-92
2021/01/23 18:06:50;;;;;;;9.17;5.37;;;2.20;99.90;;;;;;5068054;28;20022;-93
2021/01/23 18:09:16;;;;;;;8.40;5.53;;;2.30;99.90;;;;;;5059098;28;20045;-92
2021/01/23 18:11:41;;;;;;;8.33;5.07;;;2.20;99.90;;;;;;5056805;28;20026;-92
2021/01/23 18:14:07;;;;;;;8.00;4.70;;;2.20;99.90;;;;;;5054431;28;20029;-93
2021/01/23 18:16:33;;;;;;;8.90;5.60;;;2.20;99.90;;;;;;5058859;28;20027;-92
2021/01/23 18:19:00;;;;;;;8.80;4.67;;;2.20;99.90;;;;;;5046892;28;20045;-93
2021/01/23 18:21:26;;;;;;;7.03;4.80;;;2.20;99.90;;;;;;5053987;28;20032;-92
2021/01/23 18:23:51;;;;;;;8.07;4.50;;;2.10;99.90;;;;;;5033544;28;20096;-91
2021/01/23 18:26:17;;;;;;;7.00;4.47;;;2.10;99.90;;;;;;5041819;28;20033;-92
2021/01/23 18:28:45;;;;;;;9.07;4.70;;;2.10;99.90;;;;;;5032407;28;20025;-92
2021/01/23 18:31:11;;;;;;;6.53;3.90;;;2.10;99.90;;;;;;5039079;28;20025;-91
2021/01/23 18:33:37;;;;;;;7.00;4.50;;;2.10;99.90;;;;;;5035983;28;20045;-92
2021/01/23 18:36:21;;;;;;;8.47;4.87;;;2.10;99.90;;;;;;5059540;28;20027;-95
2021/01/23 18:38:50;;;;;;;9.40;5.23;;;2.00;99.90;;;;;;5055465;28;20028;-91
2021/01/23 18:41:16;;;;;;;11.27;5.33;;;2.00;99.90;;;;;;5056303;28;20091;-90
2021/01/23 19:53:07;;;;;;;10.17;5.43;;;1.70;99.90;;;;;;4974481;28;20042;-87
2021/01/23 19:55:34;;;;;;;9.77;5.73;;;1.60;99.90;;;;;;4960933;28;20018;-87
2021/01/23 19:58:00;;;;;;;7.90;4.70;;;1.60;99.90;;;;;;4963872;28;20076;-87
2021/01/23 20:00:26;;;;;;;8.67;4.27;;;1.60;99.90;;;;;;4971850;28;20428;-86
2021/01/23 20:02:53;;;;;;;8.43;4.40;;;1.60;99.90;;;;;;4957834;28;20026;-87
2021/01/23 20:05:19;;;;;;;6.73;4.13;;;1.50;99.90;;;;;;4956724;28;20018;-86
2021/01/23 20:07:44;;;;;;;7.03;4.10;;;1.50;99.90;;;;;;4975104;28;20027;-86
2021/01/23 20:10:12;;;;;;;6.80;3.73;;;1.50;99.90;;;;;;4961832;28;20027;-87
2021/01/23 20:12:38;;;;;;;7.97;4.23;;;1.50;99.90;;;;;;4979909;28;20023;-86
2021/01/23 20:15:05;;;;;;;7.10;4.13;;;1.50;99.90;;;;;;4964042;28;20018;-87
2021/01/23 20:17:34;;;;;;;7.80;4.40;;;1.50;99.90;;;;;;4957188;28;20031;-88
2021/01/23 20:20:01;;;;;;;8.67;4.47;;;1.50;99.90;;;;;;4974657;28;20042;-86
2021/01/23 20:22:26;;;;;;;10.63;4.83;;;1.50;99.90;;;;;;4953896;28;20046;-85
2021/01/23 20:24:53;;;;;;;10.83;5.33;;;1.50;99.90;;;;;;4955998;28;20027;-86
2021/01/23 20:27:19;;;;;;;9.33;5.37;;;1.50;99.90;;;;;;4958050;28;20035;-86
2021/01/23 20:29:45;;;;;;;12.27;6.30;;;1.50;99.90;;;;;;4961897;28;20543;-86
2021/01/23 20:32:11;;;;;;;10.00;5.57;;;1.40;99.90;;;;;;4972708;28;20066;-87
2021/01/23 20:34:37;;;;;;;11.23;6.07;;;1.50;99.90;;;;;;4961230;28;20507;-86
2021/01/23 20:37:05;;;;;;;11.60;6.80;;;1.40;99.90;;;;;;4956323;28;20038;-85
2021/01/23 20:39:30;;;;;;;9.77;6.07;;;1.50;99.90;;;;;;4957710;28;20911;-85
2021/01/23 20:41:59;;;;;;;12.87;6.43;;;1.50;99.90;;;;;;4982424;28;20035;-86
2021/01/23 20:44:25;;;;;;;11.47;6.57;;;1.40;99.90;;;;;;4959879;28;20030;-88
2021/01/23 20:46:50;;;;;;;13.23;6.83;;;1.50;99.90;;;;;;4956429;28;20480;-87
2021/01/23 20:49:17;;;;;;;11.77;6.87;;;1.50;99.90;;;;;;4977082;28;20070;-88
2021/01/23 20:51:43;;;;;;;12.70;6.90;;;1.50;99.90;;;;;;4966346;28;20114;-87
2021/01/23 20:54:09;;;;;;;11.80;6.90;;;1.50;99.90;;;;;;4957165;28;20018;-87
2021/01/23 20:56:34;;;;;;;11.83;6.13;;;1.60;99.90;;;;;;4962363;28;20027;-87
2021/01/23 20:59:01;;;;;;;11.93;6.60;;;1.60;99.90;;;;;;4964806;28;20384;-86
2021/01/23 21:01:27;;;;;;;11.03;6.83;;;1.50;99.90;;;;;;4961824;28;20189;-86
2021/01/23 21:03:53;;;;;;;12.30;6.43;;;1.50;99.90;;;;;;4960402;28;20114;-86
2021/01/23 21:06:19;;;;;;;11.97;6.80;;;1.60;99.90;;;;;;4979576;28;20034;-86
2021/01/23 21:08:45;;;;;;;11.00;6.87;;;1.50;99.90;;;;;;4963610;28;20023;-87
2021/01/23 21:11:13;;;;;;;10.53;6.20;;;1.50;99.90;;;;;;4971780;28;20034;-86
2021/01/23 21:13:38;;;;;;;13.47;7.50;;;1.50;99.90;;;;;;4977251;28;20051;-86
2021/01/23 21:16:04;;;;;;;10.83;6.77;;;1.50;99.90;;;;;;4986234;28;20663;-87
2021/01/23 21:18:30;;;;;;;11.00;7.03;;;1.40;99.90;;;;;;4974762;28;20077;-88
2021/01/23 21:20:57;;;;;;;12.23;7.33;;;1.40;99.90;;;;;;4964850;28;20034;-86
2021/01/23 21:23:24;;;;;;;13.97;7.00;;;1.40;99.90;;;;;;4956734;28;20039;-88
2021/01/23 21:25:50;;;;;;;15.63;7.60;;;1.40;99.90;;;;;;4954499;28;20023;-86
2021/01/23 21:28:16;;;;;;;14.73;8.13;;;1.30;99.90;;;;;;4961692;28;20026;-87
2021/01/23 21:30:41;;;;;;;14.60;8.27;;;1.30;99.90;;;;;;4960955;28;20031;-87
2021/01/23 21:33:07;;;;;;;13.40;7.77;;;1.30;99.90;;;;;;4959265;28;20467;-87
2021/01/23 21:35:34;;;;;;;13.63;7.83;;;1.30;99.90;;;;;;4957272;28;20035;-86
2021/01/23 21:38:00;;;;;;;13.30;7.83;;;1.30;99.90;;;;;;4958402;28;20479;-87
2021/01/23 21:40:26;;;;;;;13.60;7.80;;;1.30;99.90;;;;;;4957196;28;20030;-86
2021/01/23 21:42:53;;;;;;;12.53;7.83;;;1.30;99.90;;;;;;4953738;28;20026;-87
2021/01/23 21:45:21;;;;;;;12.27;7.47;;;1.30;99.90;;;;;;4964671;28;20031;-86
2021/01/23 21:47:47;;;;;;;13.73;8.07;;;1.30;99.90;;;;;;4957972;28;20027;-87
2021/01/23 21:50:14;;;;;;;13.07;7.70;;;1.40;99.90;;;;;;4956656;28;20630;-88
2021/01/23 21:52:44;;;;;;;13.83;7.77;;;1.40;99.90;;;;;;4962812;28;20045;-86
2021/01/23 21:55:10;;;;;;;12.93;8.13;;;1.40;99.90;;;;;;4959413;28;20042;-86
2021/01/23 21:57:36;;;;;;;15.23;8.43;;;1.40;99.90;;;;;;4957836;28;20090;-87
2021/01/23 22:00:05;;;;;;;15.00;8.40;;;1.40;99.90;;;;;;4956885;28;20026;-87
2021/01/23 22:02:34;;;;;;;15.20;8.53;;;1.40;99.90;;;;;;4953752;28;20114;-87
2021/01/23 22:05:00;;;;;;;13.70;7.73;;;1.40;99.90;;;;;;4953166;28;20042;-87
2021/01/23 22:07:26;;;;;;;11.47;7.03;;;1.40;99.90;;;;;;4953436;28;20031;-87
2021/01/23 22:09:52;;;;;;;14.40;8.43;;;1.40;99.90;;;;;;4965054;28;20033;-87
2021/01/23 22:12:19;;;;;;;14.20;6.53;;;1.50;99.90;;;;;;4956236;28;20046;-88
2021/01/23 22:14:44;;;;;;;14.00;7.77;;;1.50;99.90;;;;;;4952725;28;20049;-88
2021/01/23 22:17:11;;;;;;;13.17;7.67;;;1.50;99.90;;;;;;4957661;28;20067;-87
2021/01/23 22:19:37;;;;;;;14.73;7.70;;;1.50;99.90;;;;;;4956243;28;20061;-86
2021/01/23 22:22:03;;;;;;;12.17;7.93;;;1.50;99.90;;;;;;4960920;28;20046;-86
2021/01/23 22:24:28;;;;;;;12.17;7.63;;;1.40;99.90;;;;;;4951403;28;20061;-86
2021/01/23 22:26:54;;;;;;;13.20;7.73;;;1.50;99.90;;;;;;4956325;28;20380;-89
2021/01/23 22:29:19;;;;;;;13.60;6.90;;;1.50;99.90;;;;;;4969320;28;20608;-87
2021/01/23 22:31:45;;;;;;;11.37;6.23;;;1.40;99.90;;;;;;4952642;28;20024;-87
2021/01/23 22:34:11;;;;;;;10.33;6.63;;;1.50;99.90;;;;;;4964825;28;20031;-87
2021/01/23 22:36:38;;;;;;;11.23;6.10;;;1.50;99.90;;;;;;4959576;28;20035;-87
2021/01/23 22:39:04;;;;;;;12.57;7.03;;;1.50;99.90;;;;;;4951288;28;20026;-88
2021/01/23 22:41:30;;;;;;;13.10;7.63;;;1.50;99.90;;;;;;4957870;28;20039;-88
2021/01/23 22:43:55;;;;;;;10.27;6.37;;;1.50;99.90;;;;;;4957452;28;20084;-87
2021/01/23 22:46:21;;;;;;;11.70;5.87;;;1.50;99.90;;;;;;4963637;28;20126;-86
2021/01/23 22:48:46;;;;;;;10.83;6.00;;;1.60;99.90;;;;;;4972140;28;20453;-88
2021/01/23 22:51:12;;;;;;;11.60;6.17;;;1.60;99.90;;;;;;4974934;28;20484;-87
2021/01/23 22:53:38;;;;;;;10.07;5.93;;;1.60;99.90;;;;;;4954380;28;20031;-87
2021/01/23 22:56:04;;;;;;;9.13;4.60;;;1.60;99.90;;;;;;4960202;28;20027;-86
2021/01/23 22:58:30;;;;;;;7.70;4.60;;;1.60;99.90;;;;;;4967569;28;20447;-86
2021/01/23 23:00:59;;;;;;;8.73;4.83;;;1.60;99.90;;;;;;4949102;28;20061;-88
2021/01/23 23:03:24;;;;;;;9.30;4.60;;;1.60;99.90;;;;;;4962116;28;20058;-87
2021/01/23 23:05:51;;;;;;;9.73;4.47;;;1.60;99.90;;;;;;4980338;28;20457;-87
2021/01/23 23:08:24;;;;;;;9.63;4.73;;;1.60;99.90;;;;;;4954787;28;20084;-87
2021/01/23 23:10:50;;;;;;;9.07;4.43;;;1.60;99.90;;;;;;4959185;28;20089;-87
2021/01/23 23:13:17;;;;;;;14.47;5.13;;;1.60;99.90;;;;;;4965980;28;20031;-87
2021/01/23 23:15:43;;;;;;;9.83;4.60;;;1.60;99.90;;;;;;4961862;28;20042;-87
2021/01/23 23:18:10;;;;;;;7.27;3.87;;;1.70;99.90;;;;;;4962554;28;20031;-87
2021/01/23 23:20:37;;;;;;;7.67;4.20;;;1.60;99.90;;;;;;4953592;28;20042;-87
2021/01/23 23:23:05;;;;;;;7.67;3.60;;;1.70;99.90;;;;;;4964586;28;20039;-87
2021/01/23 23:25:33;;;;;;;7.93;4.07;;;1.60;99.90;;;;;;4954731;28;20042;-87
2021/01/23 23:28:00;;;;;;;8.33;4.07;;;1.70;99.90;;;;;;4958773;28;20109;-86
2021/01/23 23:30:26;;;;;;;6.13;3.17;;;1.60;99.90;;;;;;4957195;28;20094;-87
2021/01/23 23:32:54;;;;;;;6.87;3.70;;;1.60;99.90;;;;;;4953221;28;20043;-87
2021/01/23 23:35:20;;;;;;;7.37;3.77;;;1.60;99.90;;;;;;4958426;28;20030;-87
2021/01/23 23:37:47;;;;;;;6.63;4.03;;;1.60;99.90;;;;;;4950840;28;20441;-87
2021/01/23 23:40:13;;;;;;;9.80;4.23;;;1.50;99.90;;;;;;4974172;28;20043;-87
2021/01/23 23:42:39;;;;;;;7.87;3.97;;;1.50;99.90;;;;;;4962546;28;20122;-87
2021/01/23 23:45:06;;;;;;;7.80;4.27;;;1.40;99.90;;;;;;4968640;28;20057;-87
2021/01/23 23:47:34;;;;;;;7.07;4.10;;;1.40;99.90;;;;;;4957947;28;20480;-88
2021/01/23 23:50:01;;;;;;;8.57;3.90;;;1.40;99.90;;;;;;4959188;28;20035;-87
2021/01/23 23:52:26;;;;;;;8.27;4.13;;;1.40;99.90;;;;;;4958565;28;20039;-87
2021/01/23 23:54:52;;;;;;;6.70;4.10;;;1.40;99.90;;;;;;4964644;28;20057;-89
2021/01/23 23:57:18;;;;;;;8.00;4.27;;;1.40;99.90;;;;;;4959608;28;20110;-87
2021/01/23 23:59:43;;;;;;;5.07;3.30;;;1.40;99.90;;;;;;4959417;28;20121;-87
